createdAt,value
2022-10-18T11:30:34.162Z,7.88
2022-10-18T11:34:07.764Z,7.55
2022-10-18T11:37:30.294Z,6.50
2022-10-18T11:40:45.506Z,6.60
2022-10-18T11:44:03.797Z,6.93
2022-10-18T11:47:26.595Z,6.38
2022-10-18T11:50:39.194Z,7.15
2022-10-18T11:54:00.116Z,7.37
2022-10-18T11:57:39.532Z,7.53
2022-10-18T12:00:49.371Z,5.93
2022-10-18T12:04:10.557Z,6.32
2022-10-18T12:07:19.769Z,6.18
2022-10-18T12:10:44.185Z,6.77
2022-10-18T12:13:59.072Z,6.87
2022-10-18T12:17:41.711Z,6.20
2022-10-18T12:20:33.214Z,6.20
2022-10-18T12:23:45.932Z,6.68
2022-10-18T12:26:52.152Z,6.60
2022-10-18T12:30:02.838Z,6.67
2022-10-18T12:33:27.102Z,6.95
2022-10-18T12:37:10.195Z,6.47
2022-10-18T12:40:32.001Z,6.50
2022-10-18T12:43:38.488Z,6.63
2022-10-18T12:46:51.213Z,6.67
2022-10-18T12:50:03.929Z,6.35
2022-10-18T12:53:09.870Z,6.43
2022-10-18T12:56:28.271Z,6.25
2022-10-18T12:59:34.770Z,6.27
2022-10-18T13:02:40.950Z,6.33
2022-10-18T13:05:54.510Z,6.18
2022-10-18T13:09:25.600Z,5.60
2022-10-18T13:12:29.205Z,6.32
2022-10-18T13:15:55.942Z,6.23
2022-10-18T13:19:49.058Z,6.10
2022-10-18T13:23:38.318Z,6.10
2022-10-18T13:27:18.069Z,5.93
2022-10-18T13:30:41.525Z,6.18
2022-10-18T13:33:44.389Z,6.17
2022-10-18T13:36:58.480Z,6.27
2022-10-18T13:40:25.359Z,6.00
2022-10-18T13:43:52.970Z,6.45
2022-10-18T13:46:55.758Z,5.72
2022-10-18T13:50:35.343Z,6.00
2022-10-18T13:54:04.229Z,5.97
2022-10-18T13:57:29.412Z,6.10
2022-10-18T14:01:07.801Z,5.93
2022-10-18T14:04:28.997Z,5.88
2022-10-18T14:07:33.337Z,5.63
2022-10-18T14:11:05.142Z,6.40
2022-10-18T14:14:44.070Z,5.97
2022-10-18T14:18:01.951Z,6.10
2022-10-18T14:21:19.863Z,5.95
2022-10-18T14:24:34.355Z,5.63
2022-10-18T14:27:43.671Z,6.37
2022-10-18T14:31:00.352Z,5.72
2022-10-18T14:34:03.575Z,6.30
2022-10-18T14:37:07.085Z,6.00
2022-10-18T14:40:44.176Z,5.40
2022-10-18T14:43:48.387Z,5.67
2022-10-18T14:47:27.337Z,5.88
2022-10-18T14:50:33.866Z,5.70
2022-10-18T14:53:43.094Z,5.80
2022-10-18T14:56:46.450Z,5.97
2022-10-18T14:59:53.794Z,5.40
2022-10-18T15:02:56.800Z,5.97
2022-10-18T15:06:02.703Z,5.65
2022-10-18T15:09:06.287Z,5.88
2022-10-18T15:12:14.161Z,6.00
2022-10-18T15:15:29.879Z,5.60
2022-10-18T15:18:32.668Z,5.65
2022-10-18T15:21:39.496Z,5.25
2022-10-18T15:24:42.371Z,5.80
2022-10-18T15:27:53.948Z,5.57
2022-10-18T15:31:02.727Z,5.53
2022-10-18T15:34:32.695Z,5.38
2022-10-18T15:37:44.531Z,5.40
2022-10-18T15:40:48.242Z,5.10
2022-10-18T15:44:10.261Z,5.50
2022-10-18T15:47:26.517Z,6.23
2022-10-18T15:50:44.415Z,5.50
2022-10-18T15:53:52.944Z,5.72
2022-10-18T15:56:56.742Z,5.18
2022-10-18T16:00:06.483Z,5.37
2022-10-18T16:03:16.327Z,5.03
2022-10-18T16:06:19.162Z,5.13
2022-10-18T16:09:24.732Z,5.38
2022-10-18T16:12:27.508Z,5.47
2022-10-18T16:15:30.145Z,5.20
2022-10-18T16:18:33.780Z,5.77
2022-10-18T16:21:38.632Z,5.07
2022-10-18T16:24:41.338Z,5.13
2022-10-18T16:27:43.925Z,5.00
2022-10-18T16:30:54.835Z,5.50
2022-10-18T16:33:58.384Z,5.00
2022-10-18T16:37:01.017Z,5.32
2022-10-18T16:40:30.141Z,5.25
2022-10-18T16:43:53.341Z,5.70
2022-10-18T16:46:56.447Z,5.50
2022-10-18T16:50:04.086Z,5.50
2022-10-18T16:53:12.658Z,4.78
2022-10-18T16:56:25.960Z,4.88
2022-10-18T16:59:32.467Z,5.72
2022-10-18T17:02:38.172Z,4.90
2022-10-18T17:05:41.959Z,5.33
2022-10-18T17:08:45.000Z,5.40
2022-10-18T17:11:47.703Z,6.38
2022-10-18T17:14:50.409Z,5.32
2022-10-18T17:17:53.717Z,5.60
2022-10-18T17:21:03.815Z,5.80
2022-10-18T17:24:07.146Z,6.00
2022-10-18T17:27:12.240Z,6.40
2022-10-18T17:30:15.580Z,6.80
2022-10-18T17:33:18.608Z,6.20
2022-10-18T17:36:22.084Z,5.87
2022-10-18T17:39:25.307Z,6.55
2022-10-18T17:42:28.176Z,7.25
2022-10-18T17:45:31.128Z,6.03
2022-10-18T17:48:34.323Z,6.27
2022-10-18T17:51:37.543Z,7.10
2022-10-18T17:54:40.779Z,6.55
2022-10-18T17:57:44.577Z,6.97
2022-10-18T18:00:49.980Z,7.85
2022-10-18T18:04:01.559Z,6.53
2022-10-18T18:07:05.132Z,7.23
2022-10-18T18:10:08.848Z,7.38
2022-10-18T18:13:15.120Z,6.63
2022-10-18T18:16:24.309Z,6.78
2022-10-18T18:19:28.403Z,6.93
2022-10-18T18:22:32.694Z,7.00
2022-10-18T18:25:36.087Z,6.60
2022-10-18T18:28:47.134Z,6.90
2022-10-18T18:31:51.638Z,6.80
2022-10-18T18:34:56.698Z,6.10
2022-10-18T18:38:00.270Z,7.00
2022-10-18T18:41:04.658Z,7.05
2022-10-18T18:44:08.669Z,6.47
2022-10-18T18:47:14.438Z,7.20
2022-10-18T18:50:18.829Z,7.27
2022-10-18T18:53:25.988Z,6.97
2022-10-18T18:56:36.667Z,6.45
2022-10-18T18:59:40.425Z,6.55
2022-10-18T19:02:43.888Z,6.45
2022-10-18T19:05:47.742Z,7.20
2022-10-18T19:09:01.236Z,7.17
2022-10-18T19:12:05.186Z,7.35
2022-10-18T19:15:08.587Z,6.57
2022-10-18T19:18:12.196Z,6.63
2022-10-18T19:21:15.757Z,6.93
2022-10-18T19:24:24.163Z,7.10
2022-10-18T19:27:27.673Z,6.57
2022-10-18T19:30:33.065Z,6.75
2022-10-18T19:33:48.129Z,6.22
2022-10-18T19:36:59.417Z,6.63
2022-10-18T19:40:03.681Z,6.57
2022-10-18T19:43:07.176Z,6.40
2022-10-18T19:46:11.768Z,6.47
2022-10-18T19:49:15.348Z,6.95
2022-10-18T19:52:19.026Z,6.30
2022-10-18T19:55:22.449Z,6.10
2022-10-18T19:58:25.886Z,7.10
2022-10-18T20:01:29.513Z,6.97
2022-10-18T20:04:37.564Z,6.65
2022-10-18T20:07:45.862Z,6.57
2022-10-18T20:10:50.440Z,7.30
2022-10-18T20:17:36.523Z,6.80
2022-10-18T20:20:47.333Z,6.82
2022-10-18T20:23:51.096Z,6.00
2022-10-18T20:27:03.885Z,6.47
2022-10-18T20:30:14.009Z,6.45
2022-10-18T20:33:18.647Z,5.80
2022-10-18T20:36:26.435Z,6.60
2022-10-18T20:39:29.722Z,6.03
2022-10-18T20:42:32.415Z,6.47
2022-10-18T20:45:35.090Z,7.10
2022-10-18T20:48:42.735Z,6.25
2022-10-18T20:51:48.621Z,7.40
2022-10-18T20:54:52.017Z,6.40
2022-10-18T20:57:55.140Z,7.00
2022-10-18T21:01:08.488Z,6.32
2022-10-18T21:04:17.119Z,6.20
2022-10-18T21:07:23.179Z,6.15
2022-10-18T21:10:27.231Z,7.00
2022-10-18T21:13:33.586Z,6.57
2022-10-18T21:16:45.459Z,6.40
2022-10-18T21:19:52.296Z,7.03
2022-10-18T21:23:04.461Z,6.57
2022-10-18T21:26:08.913Z,6.37
2022-10-18T21:29:12.717Z,6.77
2022-10-18T21:32:19.053Z,6.63
2022-10-18T21:35:25.810Z,6.03
2022-10-18T21:38:40.278Z,5.95
2022-10-18T21:41:43.642Z,6.00
2022-10-18T21:44:46.995Z,6.60
2022-10-18T21:47:50.343Z,6.85
2022-10-18T21:50:54.349Z,5.68
2022-10-18T21:57:45.919Z,5.90
2022-10-18T22:00:50.038Z,6.53
2022-10-18T22:03:54.585Z,5.93
2022-10-18T22:06:58.313Z,5.65
2022-10-18T22:10:01.074Z,6.35
2022-10-18T22:13:03.900Z,6.73
2022-10-18T22:16:07.877Z,5.70
2022-10-18T22:19:12.750Z,6.18
2022-10-18T22:22:15.449Z,6.00
2022-10-18T22:25:18.199Z,5.75
2022-10-18T22:28:20.906Z,6.60
2022-10-18T22:31:26.381Z,5.77
2022-10-18T22:34:29.266Z,5.93
2022-10-18T22:37:32.056Z,6.00
2022-10-18T22:40:35.583Z,6.03
2022-10-18T22:43:39.142Z,6.00
2022-10-18T22:46:42.455Z,6.33
2022-10-18T22:49:45.063Z,5.85
2022-10-18T22:52:49.685Z,6.13
2022-10-18T22:55:55.459Z,5.63
2022-10-18T22:58:58.300Z,5.83
2022-10-18T23:02:00.898Z,6.07
2022-10-18T23:05:03.788Z,5.80
2022-10-18T23:08:08.599Z,6.20
2022-10-18T23:11:11.882Z,5.60
2022-10-18T23:14:14.612Z,6.10
2022-10-18T23:17:17.364Z,6.17
2022-10-18T23:20:23.125Z,5.88
2022-10-18T23:23:26.139Z,5.82
2022-10-18T23:26:29.048Z,6.20
2022-10-18T23:29:31.799Z,6.30
2022-10-18T23:32:35.896Z,5.80
2022-10-18T23:35:38.691Z,5.78
2022-10-18T23:38:41.935Z,5.43
2022-10-18T23:41:44.602Z,6.03
2022-10-18T23:44:48.214Z,5.70
2022-10-18T23:47:50.933Z,5.97
2022-10-18T23:50:56.468Z,5.25
2022-10-18T23:53:59.774Z,5.38
2022-10-18T23:57:02.409Z,5.60
